sensor_id;sensor_type;location;lat;lon;timestamp;P1;durP1;ratioP1;P2;durP2;ratioP2
8225;SDS011;4154;48.810;9.012;2023-08-21T00:01:18;7.80;;;7.03;;
8225;SDS011;4154;48.810;9.012;2023-08-21T00:03:44;8.00;;;7.20;;
8225;SDS011;4154;48.810;9.012;2023-08-21T00:06:10;10.85;;;7.50;;
8225;SDS011;4154;48.810;9.012;2023-08-21T00:08:36;7.55;;;6.65;;
8225;SDS011;4154;48.810;9.012;2023-08-21T00:11:02;7.13;;;6.38;;
8225;SDS011;4154;48.810;9.012;2023-08-21T00:13:28;7.18;;;6.57;;
8225;SDS011;4154;48.810;9.012;2023-08-21T00:15:54;7.45;;;6.75;;
8225;SDS011;4154;48.810;9.012;2023-08-21T00:18:21;7.68;;;6.88;;
8225;SDS011;4154;48.810;9.012;2023-08-21T00:20:47;7.63;;;6.93;;
8225;SDS011;4154;48.810;9.012;2023-08-21T00:23:13;8.45;;;6.45;;
8225;SDS011;4154;48.810;9.012;2023-08-21T00:25:39;7.50;;;6.70;;
8225;SDS011;4154;48.810;9.012;2023-08-21T00:28:07;7.28;;;6.68;;
8225;SDS011;4154;48.810;9.012;2023-08-21T00:30:33;7.93;;;6.68;;
8225;SDS011;4154;48.810;9.012;2023-08-21T00:32:58;7.72;;;6.90;;
8225;SDS011;4154;48.810;9.012;2023-08-21T00:35:24;7.55;;;6.85;;
8225;SDS011;4154;48.810;9.012;2023-08-21T00:37:52;7.80;;;6.95;;
8225;SDS011;4154;48.810;9.012;2023-08-21T00:40:18;7.38;;;6.68;;
8225;SDS011;4154;48.810;9.012;2023-08-21T00:42:43;7.60;;;6.90;;
8225;SDS011;4154;48.810;9.012;2023-08-21T00:45:09;8.02;;;7.30;;
8225;SDS011;4154;48.810;9.012;2023-08-21T00:47:36;7.93;;;7.05;;
8225;SDS011;4154;48.810;9.012;2023-08-21T00:50:02;7.05;;;6.45;;
8225;SDS011;4154;48.810;9.012;2023-08-21T00:52:31;6.88;;;6.28;;
8225;SDS011;4154;48.810;9.012;2023-08-21T00:54:59;7.63;;;6.90;;
8225;SDS011;4154;48.810;9.012;2023-08-21T00:57:26;7.90;;;6.65;;
8225;SDS011;4154;48.810;9.012;2023-08-21T00:59:53;7.43;;;6.78;;
8225;SDS011;4154;48.810;9.012;2023-08-21T01:02:19;7.65;;;6.85;;
8225;SDS011;4154;48.810;9.012;2023-08-21T01:04:44;7.55;;;6.82;;
8225;SDS011;4154;48.810;9.012;2023-08-21T01:07:10;7.35;;;6.25;;
8225;SDS011;4154;48.810;9.012;2023-08-21T01:09:54;7.50;;;6.75;;
8225;SDS011;4154;48.810;9.012;2023-08-21T01:15:30;7.90;;;7.00;;
8225;SDS011;4154;48.810;9.012;2023-08-21T01:17:57;7.15;;;6.55;;
8225;SDS011;4154;48.810;9.012;2023-08-21T01:20:24;7.90;;;7.10;;
8225;SDS011;4154;48.810;9.012;2023-08-21T01:22:50;7.60;;;6.80;;
8225;SDS011;4154;48.810;9.012;2023-08-21T01:25:16;7.45;;;6.65;;
8225;SDS011;4154;48.810;9.012;2023-08-21T01:27:43;7.70;;;7.10;;
8225;SDS011;4154;48.810;9.012;2023-08-21T01:30:14;7.93;;;7.13;;
8225;SDS011;4154;48.810;9.012;2023-08-21T01:35:35;7.20;;;6.50;;
8225;SDS011;4154;48.810;9.012;2023-08-21T01:38:02;7.22;;;6.63;;
8225;SDS011;4154;48.810;9.012;2023-08-21T01:40:28;8.82;;;7.13;;
8225;SDS011;4154;48.810;9.012;2023-08-21T01:42:54;7.32;;;6.50;;
8225;SDS011;4154;48.810;9.012;2023-08-21T01:45:20;7.32;;;6.50;;
8225;SDS011;4154;48.810;9.012;2023-08-21T01:47:47;8.30;;;7.47;;
8225;SDS011;4154;48.810;9.012;2023-08-21T01:50:13;8.90;;;7.68;;
8225;SDS011;4154;48.810;9.012;2023-08-21T01:52:39;7.22;;;6.63;;
8225;SDS011;4154;48.810;9.012;2023-08-21T01:55:05;8.50;;;6.93;;
8225;SDS011;4154;48.810;9.012;2023-08-21T01:57:32;7.85;;;7.05;;
8225;SDS011;4154;48.810;9.012;2023-08-21T01:59:59;7.93;;;6.75;;
8225;SDS011;4154;48.810;9.012;2023-08-21T02:02:25;8.20;;;7.43;;
8225;SDS011;4154;48.810;9.012;2023-08-21T02:04:51;7.72;;;7.03;;
8225;SDS011;4154;48.810;9.012;2023-08-21T02:07:17;7.70;;;7.10;;
8225;SDS011;4154;48.810;9.012;2023-08-21T02:09:43;7.78;;;7.07;;
8225;SDS011;4154;48.810;9.012;2023-08-21T02:12:09;8.23;;;7.15;;
8225;SDS011;4154;48.810;9.012;2023-08-21T02:14:35;8.57;;;7.75;;
8225;SDS011;4154;48.810;9.012;2023-08-21T02:17:01;8.98;;;7.40;;
8225;SDS011;4154;48.810;9.012;2023-08-21T02:19:27;8.68;;;7.80;;
8225;SDS011;4154;48.810;9.012;2023-08-21T02:21:53;7.82;;;7.15;;
8225;SDS011;4154;48.810;9.012;2023-08-21T02:24:19;8.68;;;7.85;;
8225;SDS011;4154;48.810;9.012;2023-08-21T02:26:45;8.18;;;7.38;;
8225;SDS011;4154;48.810;9.012;2023-08-21T02:29:11;8.10;;;7.30;;
8225;SDS011;4154;48.810;9.012;2023-08-21T02:31:37;7.93;;;7.22;;
8225;SDS011;4154;48.810;9.012;2023-08-21T02:34:03;8.25;;;7.45;;
8225;SDS011;4154;48.810;9.012;2023-08-21T02:36:30;9.52;;;7.80;;
8225;SDS011;4154;48.810;9.012;2023-08-21T02:38:56;8.40;;;7.50;;
8225;SDS011;4154;48.810;9.012;2023-08-21T02:41:22;8.23;;;7.43;;
8225;SDS011;4154;48.810;9.012;2023-08-21T02:43:47;7.70;;;6.72;;
8225;SDS011;4154;48.810;9.012;2023-08-21T02:46:13;8.10;;;7.30;;
8225;SDS011;4154;48.810;9.012;2023-08-21T02:48:39;8.02;;;7.25;;
8225;SDS011;4154;48.810;9.012;2023-08-21T02:51:05;7.43;;;6.75;;
8225;SDS011;4154;48.810;9.012;2023-08-21T02:53:31;7.65;;;6.80;;
8225;SDS011;4154;48.810;9.012;2023-08-21T02:55:58;7.57;;;6.88;;
8225;SDS011;4154;48.810;9.012;2023-08-21T02:58:24;7.35;;;6.65;;
8225;SDS011;4154;48.810;9.012;2023-08-21T03:00:50;7.70;;;6.97;;
8225;SDS011;4154;48.810;9.012;2023-08-21T03:03:16;7.70;;;6.95;;
8225;SDS011;4154;48.810;9.012;2023-08-21T03:05:42;8.00;;;7.18;;
8225;SDS011;4154;48.810;9.012;2023-08-21T03:08:07;8.13;;;7.32;;
8225;SDS011;4154;48.810;9.012;2023-08-21T03:10:33;8.02;;;7.35;;
8225;SDS011;4154;48.810;9.012;2023-08-21T03:13:01;7.53;;;6.82;;
8225;SDS011;4154;48.810;9.012;2023-08-21T03:15:28;7.78;;;7.18;;
8225;SDS011;4154;48.810;9.012;2023-08-21T03:17:54;8.13;;;7.32;;
8225;SDS011;4154;48.810;9.012;2023-08-21T03:20:20;8.20;;;7.40;;
8225;SDS011;4154;48.810;9.012;2023-08-21T03:22:46;8.07;;;7.38;;
8225;SDS011;4154;48.810;9.012;2023-08-21T03:25:12;8.52;;;7.72;;
8225;SDS011;4154;48.810;9.012;2023-08-21T03:27:38;8.00;;;7.30;;
8225;SDS011;4154;48.810;9.012;2023-08-21T03:30:07;8.00;;;7.30;;
8225;SDS011;4154;48.810;9.012;2023-08-21T03:32:33;8.20;;;7.40;;
8225;SDS011;4154;48.810;9.012;2023-08-21T03:34:59;9.48;;;7.05;;
8225;SDS011;4154;48.810;9.012;2023-08-21T03:37:25;7.88;;;7.07;;
8225;SDS011;4154;48.810;9.012;2023-08-21T03:39:51;9.05;;;7.65;;
8225;SDS011;4154;48.810;9.012;2023-08-21T03:42:17;8.27;;;7.28;;
8225;SDS011;4154;48.810;9.012;2023-08-21T03:44:43;8.73;;;7.72;;
8225;SDS011;4154;48.810;9.012;2023-08-21T03:47:14;9.73;;;7.88;;
8225;SDS011;4154;48.810;9.012;2023-08-21T03:49:41;8.57;;;7.72;;
8225;SDS011;4154;48.810;9.012;2023-08-21T03:52:07;9.25;;;7.43;;
8225;SDS011;4154;48.810;9.012;2023-08-21T03:54:33;9.48;;;7.72;;
8225;SDS011;4154;48.810;9.012;2023-08-21T03:56:59;8.20;;;7.40;;
8225;SDS011;4154;48.810;9.012;2023-08-21T03:59:25;7.90;;;7.15;;
8225;SDS011;4154;48.810;9.012;2023-08-21T04:01:52;7.60;;;6.78;;
8225;SDS011;4154;48.810;9.012;2023-08-21T04:04:18;7.85;;;7.13;;
8225;SDS011;4154;48.810;9.012;2023-08-21T04:06:44;8.88;;;6.97;;
8225;SDS011;4154;48.810;9.012;2023-08-21T04:09:10;8.77;;;7.60;;
8225;SDS011;4154;48.810;9.012;2023-08-21T04:11:36;7.57;;;6.80;;
8225;SDS011;4154;48.810;9.012;2023-08-21T04:14:03;9.05;;;7.40;;
8225;SDS011;4154;48.810;9.012;2023-08-21T04:16:29;8.75;;;7.88;;
8225;SDS011;4154;48.810;9.012;2023-08-21T04:18:55;8.20;;;7.18;;
8225;SDS011;4154;48.810;9.012;2023-08-21T04:21:22;8.32;;;7.63;;
8225;SDS011;4154;48.810;9.012;2023-08-21T04:23:48;7.95;;;7.20;;
8225;SDS011;4154;48.810;9.012;2023-08-21T04:26:14;8.05;;;7.25;;
8225;SDS011;4154;48.810;9.012;2023-08-21T04:28:40;7.88;;;7.18;;
8225;SDS011;4154;48.810;9.012;2023-08-21T04:31:07;9.23;;;8.20;;
8225;SDS011;4154;48.810;9.012;2023-08-21T04:33:33;7.93;;;7.18;;
8225;SDS011;4154;48.810;9.012;2023-08-21T04:36:00;8.43;;;7.65;;
8225;SDS011;4154;48.810;9.012;2023-08-21T04:38:26;8.52;;;7.72;;
8225;SDS011;4154;48.810;9.012;2023-08-21T04:40:52;8.07;;;7.22;;
8225;SDS011;4154;48.810;9.012;2023-08-21T04:43:17;8.15;;;7.35;;
8225;SDS011;4154;48.810;9.012;2023-08-21T04:45:47;9.55;;;7.03;;
8225;SDS011;4154;48.810;9.012;2023-08-21T04:48:19;9.57;;;8.25;;
8225;SDS011;4154;48.810;9.012;2023-08-21T04:50:46;8.50;;;7.80;;
8225;SDS011;4154;48.810;9.012;2023-08-21T04:53:12;8.40;;;7.53;;
8225;SDS011;4154;48.810;9.012;2023-08-21T04:55:41;8.70;;;7.90;;
8225;SDS011;4154;48.810;9.012;2023-08-21T04:58:08;8.68;;;7.80;;
8225;SDS011;4154;48.810;9.012;2023-08-21T05:00:34;9.05;;;8.18;;
8225;SDS011;4154;48.810;9.012;2023-08-21T05:03:00;8.52;;;7.72;;
8225;SDS011;4154;48.810;9.012;2023-08-21T05:05:27;9.07;;;8.18;;
8225;SDS011;4154;48.810;9.012;2023-08-21T05:07:53;9.70;;;7.75;;
8225;SDS011;4154;48.810;9.012;2023-08-21T05:10:19;8.73;;;7.93;;
8225;SDS011;4154;48.810;9.012;2023-08-21T05:12:46;8.88;;;8.05;;
8225;SDS011;4154;48.810;9.012;2023-08-21T05:15:12;8.55;;;7.75;;
8225;SDS011;4154;48.810;9.012;2023-08-21T05:17:38;8.68;;;7.63;;
8225;SDS011;4154;48.810;9.012;2023-08-21T05:20:05;8.02;;;7.22;;
8225;SDS011;4154;48.810;9.012;2023-08-21T05:22:31;8.55;;;7.57;;
8225;SDS011;4154;48.810;9.012;2023-08-21T05:24:57;9.13;;;7.38;;
8225;SDS011;4154;48.810;9.012;2023-08-21T05:27:23;8.93;;;8.02;;
8225;SDS011;4154;48.810;9.012;2023-08-21T05:29:49;8.52;;;7.43;;
8225;SDS011;4154;48.810;9.012;2023-08-21T05:32:16;8.85;;;7.95;;
8225;SDS011;4154;48.810;9.012;2023-08-21T05:34:42;8.70;;;7.78;;
8225;SDS011;4154;48.810;9.012;2023-08-21T05:37:09;8.27;;;7.47;;
8225;SDS011;4154;48.810;9.012;2023-08-21T05:39:35;8.38;;;7.57;;
8225;SDS011;4154;48.810;9.012;2023-08-21T05:42:01;8.73;;;7.90;;
8225;SDS011;4154;48.810;9.012;2023-08-21T05:44:27;8.50;;;7.80;;
8225;SDS011;4154;48.810;9.012;2023-08-21T05:46:53;9.05;;;7.55;;
8225;SDS011;4154;48.810;9.012;2023-08-21T05:49:19;8.30;;;7.45;;
8225;SDS011;4154;48.810;9.012;2023-08-21T05:51:45;9.50;;;8.32;;
8225;SDS011;4154;48.810;9.012;2023-08-21T05:54:19;8.55;;;7.78;;
8225;SDS011;4154;48.810;9.012;2023-08-21T05:56:45;8.77;;;7.88;;
8225;SDS011;4154;48.810;9.012;2023-08-21T05:59:11;8.35;;;7.57;;
8225;SDS011;4154;48.810;9.012;2023-08-21T06:01:54;8.70;;;7.97;;
8225;SDS011;4154;48.810;9.012;2023-08-21T06:04:20;8.52;;;7.72;;
8225;SDS011;4154;48.810;9.012;2023-08-21T06:06:49;8.98;;;8.18;;
8225;SDS011;4154;48.810;9.012;2023-08-21T06:09:14;9.13;;;8.32;;
8225;SDS011;4154;48.810;9.012;2023-08-21T06:11:42;8.63;;;7.75;;
8225;SDS011;4154;48.810;9.012;2023-08-21T06:14:08;9.10;;;7.38;;
8225;SDS011;4154;48.810;9.012;2023-08-21T06:16:34;8.27;;;7.40;;
8225;SDS011;4154;48.810;9.012;2023-08-21T06:19:03;8.85;;;7.82;;
8225;SDS011;4154;48.810;9.012;2023-08-21T06:21:29;8.27;;;7.47;;
8225;SDS011;4154;48.810;9.012;2023-08-21T06:23:57;8.55;;;7.75;;
8225;SDS011;4154;48.810;9.012;2023-08-21T06:26:27;8.25;;;7.43;;
8225;SDS011;4154;48.810;9.012;2023-08-21T06:28:53;8.13;;;7.25;;
8225;SDS011;4154;48.810;9.012;2023-08-21T06:31:19;8.57;;;7.43;;
8225;SDS011;4154;48.810;9.012;2023-08-21T06:33:45;8.27;;;7.40;;
8225;SDS011;4154;48.810;9.012;2023-08-21T06:36:11;8.20;;;7.43;;
8225;SDS011;4154;48.810;9.012;2023-08-21T06:38:37;8.23;;;7.32;;
8225;SDS011;4154;48.810;9.012;2023-08-21T06:41:03;8.82;;;7.85;;
8225;SDS011;4154;48.810;9.012;2023-08-21T06:43:29;7.30;;;6.70;;
8225;SDS011;4154;48.810;9.012;2023-08-21T06:45:56;8.52;;;7.63;;
8225;SDS011;4154;48.810;9.012;2023-08-21T06:48:22;8.13;;;7.32;;
8225;SDS011;4154;48.810;9.012;2023-08-21T06:50:48;9.13;;;7.30;;
8225;SDS011;4154;48.810;9.012;2023-08-21T06:53:14;8.13;;;7.32;;
8225;SDS011;4154;48.810;9.012;2023-08-21T06:55:40;8.55;;;7.32;;
8225;SDS011;4154;48.810;9.012;2023-08-21T06:58:09;8.38;;;7.57;;
8225;SDS011;4154;48.810;9.012;2023-08-21T07:00:35;8.13;;;7.32;;
8225;SDS011;4154;48.810;9.012;2023-08-21T07:03:01;7.82;;;7.07;;
8225;SDS011;4154;48.810;9.012;2023-08-21T07:05:28;7.78;;;7.10;;
8225;SDS011;4154;48.810;9.012;2023-08-21T07:07:54;7.53;;;6.82;;
8225;SDS011;4154;48.810;9.012;2023-08-21T07:10:20;7.80;;;7.03;;
8225;SDS011;4154;48.810;9.012;2023-08-21T07:12:47;9.38;;;6.70;;
8225;SDS011;4154;48.810;9.012;2023-08-21T07:15:13;8.20;;;7.10;;
8225;SDS011;4154;48.810;9.012;2023-08-21T07:17:40;7.00;;;6.30;;
8225;SDS011;4154;48.810;9.012;2023-08-21T07:20:07;7.35;;;6.57;;
8225;SDS011;4154;48.810;9.012;2023-08-21T07:22:33;7.50;;;6.70;;
8225;SDS011;4154;48.810;9.012;2023-08-21T07:24:59;7.20;;;6.43;;
8225;SDS011;4154;48.810;9.012;2023-08-21T07:27:28;6.95;;;6.25;;
8225;SDS011;4154;48.810;9.012;2023-08-21T07:29:55;6.85;;;6.25;;
8225;SDS011;4154;48.810;9.012;2023-08-21T07:32:21;7.30;;;6.53;;
8225;SDS011;4154;48.810;9.012;2023-08-21T07:34:48;7.25;;;6.47;;
8225;SDS011;4154;48.810;9.012;2023-08-21T07:37:19;6.97;;;6.28;;
8225;SDS011;4154;48.810;9.012;2023-08-21T07:39:45;7.50;;;6.43;;
8225;SDS011;4154;48.810;9.012;2023-08-21T07:42:11;7.60;;;6.32;;
8225;SDS011;4154;48.810;9.012;2023-08-21T07:44:39;7.55;;;6.10;;
8225;SDS011;4154;48.810;9.012;2023-08-21T07:47:05;7.18;;;6.47;;
8225;SDS011;4154;48.810;9.012;2023-08-21T07:49:32;6.97;;;6.30;;
8225;SDS011;4154;48.810;9.012;2023-08-21T07:51:58;7.03;;;6.32;;
8225;SDS011;4154;48.810;9.012;2023-08-21T07:54:26;7.20;;;6.55;;
8225;SDS011;4154;48.810;9.012;2023-08-21T07:56:54;8.25;;;6.63;;
8225;SDS011;4154;48.810;9.012;2023-08-21T07:59:19;6.65;;;6.05;;
8225;SDS011;4154;48.810;9.012;2023-08-21T08:01:46;9.30;;;5.97;;
8225;SDS011;4154;48.810;9.012;2023-08-21T08:04:12;9.88;;;5.88;;
8225;SDS011;4154;48.810;9.012;2023-08-21T08:06:38;15.73;;;6.50;;
8225;SDS011;4154;48.810;9.012;2023-08-21T08:09:04;12.05;;;6.53;;
8225;SDS011;4154;48.810;9.012;2023-08-21T08:11:30;12.07;;;6.80;;
8225;SDS011;4154;48.810;9.012;2023-08-21T08:13:56;8.55;;;6.18;;
8225;SDS011;4154;48.810;9.012;2023-08-21T08:16:22;9.77;;;6.43;;
8225;SDS011;4154;48.810;9.012;2023-08-21T08:18:48;8.07;;;5.90;;
8225;SDS011;4154;48.810;9.012;2023-08-21T08:21:14;9.07;;;6.20;;
8225;SDS011;4154;48.810;9.012;2023-08-21T08:23:40;7.15;;;6.45;;
8225;SDS011;4154;48.810;9.012;2023-08-21T08:26:05;9.93;;;6.55;;
8225;SDS011;4154;48.810;9.012;2023-08-21T08:28:33;8.13;;;6.57;;
8225;SDS011;4154;48.810;9.012;2023-08-21T08:31:00;8.07;;;6.00;;
8225;SDS011;4154;48.810;9.012;2023-08-21T08:33:26;7.63;;;6.47;;
8225;SDS011;4154;48.810;9.012;2023-08-21T08:35:52;6.82;;;6.22;;
8225;SDS011;4154;48.810;9.012;2023-08-21T08:38:18;8.05;;;6.38;;
8225;SDS011;4154;48.810;9.012;2023-08-21T08:40:45;7.15;;;6.45;;
8225;SDS011;4154;48.810;9.012;2023-08-21T08:43:12;7.68;;;6.13;;
8225;SDS011;4154;48.810;9.012;2023-08-21T08:45:40;6.82;;;6.20;;
8225;SDS011;4154;48.810;9.012;2023-08-21T08:48:07;7.28;;;6.68;;
8225;SDS011;4154;48.810;9.012;2023-08-21T08:50:33;7.03;;;6.32;;
8225;SDS011;4154;48.810;9.012;2023-08-21T08:53:00;6.78;;;6.07;;
8225;SDS011;4154;48.810;9.012;2023-08-21T08:55:27;6.85;;;6.22;;
8225;SDS011;4154;48.810;9.012;2023-08-21T08:57:53;7.00;;;6.35;;
8225;SDS011;4154;48.810;9.012;2023-08-21T09:00:19;7.55;;;6.22;;
8225;SDS011;4154;48.810;9.012;2023-08-21T09:02:46;7.40;;;6.70;;
8225;SDS011;4154;48.810;9.012;2023-08-21T09:05:12;6.47;;;5.95;;
8225;SDS011;4154;48.810;9.012;2023-08-21T09:07:38;7.85;;;6.32;;
8225;SDS011;4154;48.810;9.012;2023-08-21T09:10:04;8.35;;;6.22;;
8225;SDS011;4154;48.810;9.012;2023-08-21T09:12:40;7.85;;;5.90;;
8225;SDS011;4154;48.810;9.012;2023-08-21T09:15:09;8.23;;;6.05;;
8225;SDS011;4154;48.810;9.012;2023-08-21T09:17:36;7.80;;;6.30;;
8225;SDS011;4154;48.810;9.012;2023-08-21T09:20:05;6.60;;;6.00;;
8225;SDS011;4154;48.810;9.012;2023-08-21T09:22:35;6.38;;;5.75;;
8225;SDS011;4154;48.810;9.012;2023-08-21T09:25:05;6.63;;;5.97;;
8225;SDS011;4154;48.810;9.012;2023-08-21T09:27:33;8.50;;;5.90;;
8225;SDS011;4154;48.810;9.012;2023-08-21T09:30:00;6.20;;;5.70;;
8225;SDS011;4154;48.810;9.012;2023-08-21T09:32:29;6.70;;;5.97;;
8225;SDS011;4154;48.810;9.012;2023-08-21T09:34:55;8.10;;;6.15;;
8225;SDS011;4154;48.810;9.012;2023-08-21T09:37:27;6.20;;;5.65;;
8225;SDS011;4154;48.810;9.012;2023-08-21T09:40:00;6.57;;;5.47;;
8225;SDS011;4154;48.810;9.012;2023-08-21T09:42:32;6.45;;;5.38;;
8225;SDS011;4154;48.810;9.012;2023-08-21T09:44:57;5.18;;;4.78;;
8225;SDS011;4154;48.810;9.012;2023-08-21T09:47:25;5.20;;;4.70;;
8225;SDS011;4154;48.810;9.012;2023-08-21T09:49:52;5.70;;;5.20;;
8225;SDS011;4154;48.810;9.012;2023-08-21T09:52:18;6.65;;;5.40;;
8225;SDS011;4154;48.810;9.012;2023-08-21T09:54:44;5.88;;;5.20;;
8225;SDS011;4154;48.810;9.012;2023-08-21T09:57:10;5.65;;;4.90;;
8225;SDS011;4154;48.810;9.012;2023-08-21T09:59:37;5.55;;;4.78;;
8225;SDS011;4154;48.810;9.012;2023-08-21T10:02:05;5.10;;;4.53;;
8225;SDS011;4154;48.810;9.012;2023-08-21T10:04:34;5.43;;;4.82;;
8225;SDS011;4154;48.810;9.012;2023-08-21T10:07:01;5.13;;;4.47;;
8225;SDS011;4154;48.810;9.012;2023-08-21T10:09:30;8.90;;;4.72;;
8225;SDS011;4154;48.810;9.012;2023-08-21T10:11:57;5.47;;;4.97;;
8225;SDS011;4154;48.810;9.012;2023-08-21T10:14:23;6.00;;;4.35;;
8225;SDS011;4154;48.810;9.012;2023-08-21T10:16:51;7.03;;;4.53;;
8225;SDS011;4154;48.810;9.012;2023-08-21T10:19:18;7.90;;;4.97;;
8225;SDS011;4154;48.810;9.012;2023-08-21T10:21:46;5.72;;;4.60;;
8225;SDS011;4154;48.810;9.012;2023-08-21T10:24:25;5.55;;;5.05;;
8225;SDS011;4154;48.810;9.012;2023-08-21T10:27:00;7.82;;;5.20;;
8225;SDS011;4154;48.810;9.012;2023-08-21T10:29:26;6.80;;;5.07;;
8225;SDS011;4154;48.810;9.012;2023-08-21T10:32:02;7.63;;;5.20;;
8225;SDS011;4154;48.810;9.012;2023-08-21T10:34:33;5.57;;;5.10;;
8225;SDS011;4154;48.810;9.012;2023-08-21T10:37:03;5.93;;;5.30;;
8225;SDS011;4154;48.810;9.012;2023-08-21T10:39:37;7.15;;;5.43;;
8225;SDS011;4154;48.810;9.012;2023-08-21T10:42:18;6.25;;;5.65;;
8225;SDS011;4154;48.810;9.012;2023-08-21T10:45:02;8.13;;;5.28;;
8225;SDS011;4154;48.810;9.012;2023-08-21T10:47:36;10.25;;;5.47;;
8225;SDS011;4154;48.810;9.012;2023-08-21T10:50:03;9.68;;;5.32;;
8225;SDS011;4154;48.810;9.012;2023-08-21T10:52:36;7.03;;;5.00;;
8225;SDS011;4154;48.810;9.012;2023-08-21T10:55:07;6.75;;;5.05;;
8225;SDS011;4154;48.810;9.012;2023-08-21T10:57:34;8.52;;;5.13;;
8225;SDS011;4154;48.810;9.012;2023-08-21T11:00:08;6.50;;;5.32;;
8225;SDS011;4154;48.810;9.012;2023-08-21T11:02:39;7.65;;;5.60;;
8225;SDS011;4154;48.810;9.012;2023-08-21T11:05:07;5.97;;;5.45;;
8225;SDS011;4154;48.810;9.012;2023-08-21T11:07:44;6.28;;;5.40;;
8225;SDS011;4154;48.810;9.012;2023-08-21T11:10:16;6.95;;;5.40;;
8225;SDS011;4154;48.810;9.012;2023-08-21T11:12:53;6.97;;;5.32;;
8225;SDS011;4154;48.810;9.012;2023-08-21T11:15:20;7.65;;;5.28;;
8225;SDS011;4154;48.810;9.012;2023-08-21T11:17:58;5.93;;;5.05;;
8225;SDS011;4154;48.810;9.012;2023-08-21T11:20:32;5.95;;;5.32;;
8225;SDS011;4154;48.810;9.012;2023-08-21T11:23:00;5.60;;;4.97;;
8225;SDS011;4154;48.810;9.012;2023-08-21T11:25:34;6.63;;;5.22;;
8225;SDS011;4154;48.810;9.012;2023-08-21T11:28:04;6.82;;;5.30;;
8225;SDS011;4154;48.810;9.012;2023-08-21T11:30:30;7.10;;;5.53;;
8225;SDS011;4154;48.810;9.012;2023-08-21T11:33:06;5.78;;;5.28;;
8225;SDS011;4154;48.810;9.012;2023-08-21T11:35:34;5.70;;;5.15;;
8225;SDS011;4154;48.810;9.012;2023-08-21T11:38:00;6.75;;;5.88;;
8225;SDS011;4154;48.810;9.012;2023-08-21T11:40:28;5.50;;;5.00;;
8225;SDS011;4154;48.810;9.012;2023-08-21T11:42:54;6.68;;;5.60;;
8225;SDS011;4154;48.810;9.012;2023-08-21T11:45:26;8.20;;;5.35;;
8225;SDS011;4154;48.810;9.012;2023-08-21T11:47:55;8.27;;;5.50;;
8225;SDS011;4154;48.810;9.012;2023-08-21T11:50:21;6.35;;;5.75;;
8225;SDS011;4154;48.810;9.012;2023-08-21T11:52:47;5.78;;;5.18;;
8225;SDS011;4154;48.810;9.012;2023-08-21T11:55:17;8.02;;;5.88;;
8225;SDS011;4154;48.810;9.012;2023-08-21T11:57:50;7.43;;;5.22;;
8225;SDS011;4154;48.810;9.012;2023-08-21T12:00:17;7.40;;;5.40;;
8225;SDS011;4154;48.810;9.012;2023-08-21T12:02:53;7.53;;;5.30;;
8225;SDS011;4154;48.810;9.012;2023-08-21T12:05:23;5.57;;;4.93;;
8225;SDS011;4154;48.810;9.012;2023-08-21T12:07:50;6.00;;;5.47;;
8225;SDS011;4154;48.810;9.012;2023-08-21T12:10:22;5.40;;;4.90;;
8225;SDS011;4154;48.810;9.012;2023-08-21T12:12:51;6.00;;;5.40;;
8225;SDS011;4154;48.810;9.012;2023-08-21T12:15:17;6.18;;;5.10;;
8225;SDS011;4154;48.810;9.012;2023-08-21T12:17:43;6.72;;;5.40;;
8225;SDS011;4154;48.810;9.012;2023-08-21T12:20:09;6.90;;;5.40;;
8225;SDS011;4154;48.810;9.012;2023-08-21T12:22:39;6.07;;;5.22;;
8225;SDS011;4154;48.810;9.012;2023-08-21T12:25:07;5.85;;;5.30;;
8225;SDS011;4154;48.810;9.012;2023-08-21T12:27:34;8.60;;;5.63;;
8225;SDS011;4154;48.810;9.012;2023-08-21T12:30:00;7.80;;;5.40;;
8225;SDS011;4154;48.810;9.012;2023-08-21T12:32:26;5.35;;;4.90;;
8225;SDS011;4154;48.810;9.012;2023-08-21T12:34:52;7.20;;;5.30;;
8225;SDS011;4154;48.810;9.012;2023-08-21T12:37:18;6.03;;;5.40;;
8225;SDS011;4154;48.810;9.012;2023-08-21T12:39:44;5.57;;;5.07;;
8225;SDS011;4154;48.810;9.012;2023-08-21T12:42:09;6.32;;;5.68;;
8225;SDS011;4154;48.810;9.012;2023-08-21T12:44:35;5.82;;;5.07;;
8225;SDS011;4154;48.810;9.012;2023-08-21T12:47:01;7.05;;;5.47;;
8225;SDS011;4154;48.810;9.012;2023-08-21T12:49:27;6.60;;;5.57;;
8225;SDS011;4154;48.810;9.012;2023-08-21T12:51:53;7.28;;;5.38;;
8225;SDS011;4154;48.810;9.012;2023-08-21T12:54:20;7.55;;;5.30;;
8225;SDS011;4154;48.810;9.012;2023-08-21T12:56:46;6.32;;;5.25;;
8225;SDS011;4154;48.810;9.012;2023-08-21T12:59:12;8.35;;;5.20;;
8225;SDS011;4154;48.810;9.012;2023-08-21T13:01:39;7.13;;;5.18;;
8225;SDS011;4154;48.810;9.012;2023-08-21T13:04:05;6.90;;;5.35;;
8225;SDS011;4154;48.810;9.012;2023-08-21T13:06:30;6.22;;;5.10;;
8225;SDS011;4154;48.810;9.012;2023-08-21T13:08:56;5.70;;;5.20;;
8225;SDS011;4154;48.810;9.012;2023-08-21T13:11:22;7.55;;;5.20;;
8225;SDS011;4154;48.810;9.012;2023-08-21T13:13:48;5.45;;;4.95;;
8225;SDS011;4154;48.810;9.012;2023-08-21T13:16:14;10.43;;;5.45;;
8225;SDS011;4154;48.810;9.012;2023-08-21T13:18:40;7.57;;;5.30;;
8225;SDS011;4154;48.810;9.012;2023-08-21T13:21:06;7.78;;;5.40;;
8225;SDS011;4154;48.810;9.012;2023-08-21T13:23:32;5.78;;;5.20;;
8225;SDS011;4154;48.810;9.012;2023-08-21T13:25:59;8.48;;;5.10;;
8225;SDS011;4154;48.810;9.012;2023-08-21T13:28:26;5.72;;;5.20;;
8225;SDS011;4154;48.810;9.012;2023-08-21T13:30:52;5.38;;;4.95;;
8225;SDS011;4154;48.810;9.012;2023-08-21T13:33:18;5.85;;;5.35;;
8225;SDS011;4154;48.810;9.012;2023-08-21T13:35:44;6.10;;;5.50;;
8225;SDS011;4154;48.810;9.012;2023-08-21T13:38:10;6.57;;;5.43;;
8225;SDS011;4154;48.810;9.012;2023-08-21T13:40:39;6.55;;;5.47;;
8225;SDS011;4154;48.810;9.012;2023-08-21T13:43:06;6.95;;;5.38;;
8225;SDS011;4154;48.810;9.012;2023-08-21T13:45:37;5.72;;;5.13;;
8225;SDS011;4154;48.810;9.012;2023-08-21T13:48:04;6.20;;;5.43;;
8225;SDS011;4154;48.810;9.012;2023-08-21T13:50:30;7.22;;;5.22;;
8225;SDS011;4154;48.810;9.012;2023-08-21T13:52:56;7.90;;;5.50;;
8225;SDS011;4154;48.810;9.012;2023-08-21T13:55:23;5.90;;;5.30;;
8225;SDS011;4154;48.810;9.012;2023-08-21T13:57:48;7.63;;;5.43;;
8225;SDS011;4154;48.810;9.012;2023-08-21T14:00:14;7.82;;;5.10;;
8225;SDS011;4154;48.810;9.012;2023-08-21T14:02:42;6.13;;;5.22;;
8225;SDS011;4154;48.810;9.012;2023-08-21T14:05:09;5.22;;;4.82;;
8225;SDS011;4154;48.810;9.012;2023-08-21T14:07:35;6.25;;;5.35;;
8225;SDS011;4154;48.810;9.012;2023-08-21T14:10:01;5.82;;;5.25;;
8225;SDS011;4154;48.810;9.012;2023-08-21T14:12:30;6.05;;;5.13;;
8225;SDS011;4154;48.810;9.012;2023-08-21T14:14:56;10.35;;;5.60;;
8225;SDS011;4154;48.810;9.012;2023-08-21T14:17:23;6.13;;;5.50;;
8225;SDS011;4154;48.810;9.012;2023-08-21T14:19:49;5.97;;;4.93;;
8225;SDS011;4154;48.810;9.012;2023-08-21T14:22:15;6.78;;;5.00;;
8225;SDS011;4154;48.810;9.012;2023-08-21T14:24:41;6.10;;;5.30;;
8225;SDS011;4154;48.810;9.012;2023-08-21T14:27:07;10.00;;;5.50;;
8225;SDS011;4154;48.810;9.012;2023-08-21T14:29:33;9.63;;;5.80;;
8225;SDS011;4154;48.810;9.012;2023-08-21T14:31:58;6.00;;;5.40;;
8225;SDS011;4154;48.810;9.012;2023-08-21T14:34:25;8.15;;;5.70;;
8225;SDS011;4154;48.810;9.012;2023-08-21T14:36:55;7.55;;;5.25;;
8225;SDS011;4154;48.810;9.012;2023-08-21T14:39:22;10.52;;;6.03;;
8225;SDS011;4154;48.810;9.012;2023-08-21T14:41:58;6.75;;;5.57;;
8225;SDS011;4154;48.810;9.012;2023-08-21T14:44:24;6.22;;;5.57;;
8225;SDS011;4154;48.810;9.012;2023-08-21T14:46:54;7.38;;;5.25;;
8225;SDS011;4154;48.810;9.012;2023-08-21T14:49:21;7.20;;;5.47;;
8225;SDS011;4154;48.810;9.012;2023-08-21T14:51:47;6.05;;;5.45;;
8225;SDS011;4154;48.810;9.012;2023-08-21T14:54:13;5.90;;;5.18;;
8225;SDS011;4154;48.810;9.012;2023-08-21T14:56:39;6.32;;;4.95;;
8225;SDS011;4154;48.810;9.012;2023-08-21T14:59:05;6.03;;;5.20;;
8225;SDS011;4154;48.810;9.012;2023-08-21T15:01:35;5.40;;;5.00;;
8225;SDS011;4154;48.810;9.012;2023-08-21T15:04:02;7.53;;;5.32;;
8225;SDS011;4154;48.810;9.012;2023-08-21T15:06:28;5.90;;;5.40;;
8225;SDS011;4154;48.810;9.012;2023-08-21T15:08:54;6.03;;;4.85;;
8225;SDS011;4154;48.810;9.012;2023-08-21T15:11:20;5.80;;;5.30;;
8225;SDS011;4154;48.810;9.012;2023-08-21T15:13:45;8.82;;;5.70;;
8225;SDS011;4154;48.810;9.012;2023-08-21T15:16:11;6.32;;;5.20;;
8225;SDS011;4154;48.810;9.012;2023-08-21T15:18:37;6.28;;;5.18;;
8225;SDS011;4154;48.810;9.012;2023-08-21T15:21:03;6.70;;;5.45;;